Time;durP1;ratioP1;P1;durP2;ratioP2;P2;SDS_P1;SDS_P2;PMS_P1;PMS_P2;Temp;Humidity;BMP_temperature;BMP_pressure;BME280_temperature;BME280_humidity;BME280_pressure;Samples;Min_cycle;Max_cycle;Signal;HPM_P1;HPM_P2
2021/10/16 00:00:23;;;;;;;22.95;16.17;;;;;;;;;;5038483;28;20045;-79
2021/10/16 00:02:49;;;;;;;20.00;14.57;;;;;;;;;;5021721;28;20438;-79
2021/10/16 00:05:15;;;;;;;19.92;14.70;;;;;;;;;;5038992;28;20034;-79
2021/10/16 00:07:41;;;;;;;21.27;15.18;;;;;;;;;;5005401;28;20026;-82
2021/10/16 00:10:08;;;;;;;19.73;14.63;;;;;;;;;;5019485;28;20029;-78
2021/10/16 00:12:34;;;;;;;22.95;15.82;;;;;;;;;;5007781;28;20410;-78
2021/10/16 00:15:00;;;;;;;22.17;14.98;;;;;;;;;;5035564;28;20022;-79
2021/10/16 00:17:27;;;;;;;21.13;15.27;;;;;;;;;;5032647;28;20032;-80
2021/10/16 00:19:53;;;;;;;20.52;14.32;;;;;;;;;;5038658;28;20025;-79
2021/10/16 00:22:20;;;;;;;21.63;14.95;;;;;;;;;;5033630;28;20121;-79
2021/10/16 00:24:49;;;;;;;21.40;15.82;;;;;;;;;;5005873;28;20065;-79
2021/10/16 00:27:16;;;;;;;20.42;15.50;;;;;;;;;;5027922;28;20115;-79
2021/10/16 00:29:43;;;;;;;19.60;14.77;;;;;;;;;;5000228;28;20034;-78
2021/10/16 00:32:09;;;;;;;20.83;15.20;;;;;;;;;;5011149;28;20108;-79
2021/10/16 00:34:35;;;;;;;22.17;15.52;;;;;;;;;;5038238;28;20022;-79
2021/10/16 00:37:02;;;;;;;21.63;15.05;;;;;;;;;;5028732;28;20055;-79
2021/10/16 00:39:28;;;;;;;20.88;16.65;;;;;;;;;;5032093;28;20029;-79
2021/10/16 00:41:54;;;;;;;24.80;16.27;;;;;;;;;;5038192;28;20308;-79
2021/10/16 00:44:23;;;;;;;19.85;15.18;;;;;;;;;;5038228;28;20025;-79
2021/10/16 00:46:50;;;;;;;22.70;15.68;;;;;;;;;;5028828;28;20049;-79
2021/10/16 00:49:17;;;;;;;21.58;15.38;;;;;;;;;;5018882;28;20021;-79
2021/10/16 00:51:45;;;;;;;19.73;14.60;;;;;;;;;;5024645;28;20025;-79
2021/10/16 00:54:11;;;;;;;23.42;16.23;;;;;;;;;;5032579;28;20026;-79
2021/10/16 00:56:38;;;;;;;20.63;15.15;;;;;;;;;;5026501;28;20018;-78
2021/10/16 00:59:05;;;;;;;21.45;16.13;;;;;;;;;;5018207;28;20046;-79
2021/10/16 01:01:31;;;;;;;21.67;15.98;;;;;;;;;;5023068;28;20056;-79
2021/10/16 01:03:58;;;;;;;26.40;17.17;;;;;;;;;;5018212;28;20021;-80
2021/10/16 01:06:24;;;;;;;24.13;16.95;;;;;;;;;;5021952;28;20482;-80
2021/10/16 01:08:52;;;;;;;24.73;16.95;;;;;;;;;;5012745;28;20315;-80
2021/10/16 01:11:20;;;;;;;24.90;17.17;;;;;;;;;;5024314;28;20111;-80
2021/10/16 01:13:46;;;;;;;24.48;18.38;;;;;;;;;;5037985;28;20028;-79
2021/10/16 01:16:12;;;;;;;24.92;17.42;;;;;;;;;;5035054;28;20025;-78
2021/10/16 01:18:38;;;;;;;25.40;17.45;;;;;;;;;;5017077;28;20025;-79
2021/10/16 01:21:05;;;;;;;25.38;17.98;;;;;;;;;;5018209;28;20100;-79
2021/10/16 01:23:34;;;;;;;27.17;18.17;;;;;;;;;;5018209;28;20025;-78
2021/10/16 01:26:01;;;;;;;25.52;19.00;;;;;;;;;;5000396;28;20049;-78
2021/10/16 01:28:28;;;;;;;25.10;17.45;;;;;;;;;;5003762;28;20048;-79
2021/10/16 01:30:56;;;;;;;26.83;18.35;;;;;;;;;;5017856;28;20076;-79
2021/10/16 01:33:25;;;;;;;24.70;18.10;;;;;;;;;;5018897;28;20041;-78
2021/10/16 01:35:58;;;;;;;28.17;19.65;;;;;;;;;;5030160;28;20043;-79
2021/10/16 01:38:24;;;;;;;26.63;18.83;;;;;;;;;;5030350;28;20057;-78
2021/10/16 01:40:50;;;;;;;25.67;18.88;;;;;;;;;;5017621;28;20026;-79
2021/10/16 01:43:16;;;;;;;23.27;18.02;;;;;;;;;;5000461;28;20331;-79
2021/10/16 01:45:42;;;;;;;27.23;18.25;;;;;;;;;;5035199;28;20041;-79
2021/10/16 01:48:08;;;;;;;30.10;18.92;;;;;;;;;;5023001;28;20113;-79
2021/10/16 01:50:38;;;;;;;22.25;17.23;;;;;;;;;;5024216;28;20068;-79
2021/10/16 01:53:08;;;;;;;27.10;18.20;;;;;;;;;;5035549;28;20530;-79
2021/10/16 01:55:34;;;;;;;26.67;18.27;;;;;;;;;;5019945;28;20025;-79
2021/10/16 01:58:06;;;;;;;23.15;18.17;;;;;;;;;;5018583;28;20030;-79
2021/10/16 02:00:32;;;;;;;26.45;17.80;;;;;;;;;;5017280;28;20042;-79
2021/10/16 02:02:59;;;;;;;29.30;18.63;;;;;;;;;;5005355;28;20151;-79
2021/10/16 02:05:25;;;;;;;23.75;16.92;;;;;;;;;;5021525;28;20030;-78
2021/10/16 02:07:51;;;;;;;26.40;17.95;;;;;;;;;;5017238;28;20034;-79
2021/10/16 02:10:17;;;;;;;27.95;18.98;;;;;;;;;;5024462;28;20118;-79
2021/10/16 02:12:43;;;;;;;29.63;19.02;;;;;;;;;;5019381;28;20075;-79
2021/10/16 02:15:09;;;;;;;26.60;18.42;;;;;;;;;;5023766;28;20036;-79
2021/10/16 02:17:35;;;;;;;28.52;17.83;;;;;;;;;;5017171;28;20037;-79
2021/10/16 02:20:02;;;;;;;26.85;18.27;;;;;;;;;;5017171;28;20057;-79
2021/10/16 02:22:28;;;;;;;28.35;19.75;;;;;;;;;;4999583;28;20045;-78
2021/10/16 02:24:54;;;;;;;28.25;18.27;;;;;;;;;;5026334;28;20022;-78
2021/10/16 02:27:20;;;;;;;27.83;19.13;;;;;;;;;;5031903;28;20044;-78
2021/10/16 02:29:46;;;;;;;27.92;17.80;;;;;;;;;;5022424;28;20809;-78
2021/10/16 02:32:12;;;;;;;25.88;18.40;;;;;;;;;;5036667;28;20416;-78
2021/10/16 02:34:38;;;;;;;25.45;18.52;;;;;;;;;;5025570;28;20427;-79
2021/10/16 02:37:04;;;;;;;25.33;17.95;;;;;;;;;;5026613;28;20293;-79
2021/10/16 02:39:30;;;;;;;29.75;18.25;;;;;;;;;;5030106;28;20030;-79
2021/10/16 02:41:58;;;;;;;22.98;17.13;;;;;;;;;;5016883;28;20038;-79
2021/10/16 02:44:24;;;;;;;25.55;17.48;;;;;;;;;;5007663;28;20064;-79
2021/10/16 02:46:50;;;;;;;26.20;17.90;;;;;;;;;;5018732;28;20045;-79
2021/10/16 02:49:16;;;;;;;28.23;19.27;;;;;;;;;;5029773;28;20478;-78
2021/10/16 02:51:42;;;;;;;27.33;18.10;;;;;;;;;;5033177;28;20034;-79
2021/10/16 02:54:08;;;;;;;30.95;19.67;;;;;;;;;;5039778;28;20026;-79
2021/10/16 02:56:34;;;;;;;33.28;20.40;;;;;;;;;;5040111;28;20415;-79
2021/10/16 02:59:00;;;;;;;27.98;19.65;;;;;;;;;;5040448;28;20363;-79
2021/10/16 03:01:27;;;;;;;30.73;20.98;;;;;;;;;;5025470;28;20109;-78
2021/10/16 03:03:53;;;;;;;28.02;19.83;;;;;;;;;;5032319;28;20022;-79
2021/10/16 03:06:19;;;;;;;29.95;20.30;;;;;;;;;;5033368;28;20117;-79
2021/10/16 03:08:45;;;;;;;28.58;20.30;;;;;;;;;;5039726;28;20022;-78
2021/10/16 03:11:11;;;;;;;31.50;19.85;;;;;;;;;;5039926;28;20038;-79
2021/10/16 03:13:38;;;;;;;29.30;18.48;;;;;;;;;;5036863;28;20041;-79
2021/10/16 03:16:04;;;;;;;26.52;18.67;;;;;;;;;;5020525;28;20022;-78
2021/10/16 03:18:30;;;;;;;31.17;18.52;;;;;;;;;;5035647;28;20391;-79
2021/10/16 03:20:56;;;;;;;29.35;19.50;;;;;;;;;;5039859;28;20078;-79
2021/10/16 03:23:22;;;;;;;24.40;17.83;;;;;;;;;;5023909;28;20084;-79
2021/10/16 03:25:48;;;;;;;26.88;17.48;;;;;;;;;;5002765;28;20396;-79
2021/10/16 03:28:15;;;;;;;26.77;18.13;;;;;;;;;;5020502;28;20021;-79
2021/10/16 03:30:41;;;;;;;26.90;18.52;;;;;;;;;;5025201;28;20026;-78
2021/10/16 03:33:07;;;;;;;26.70;18.63;;;;;;;;;;5038789;28;20385;-78
2021/10/16 03:35:34;;;;;;;28.13;18.35;;;;;;;;;;5039535;28;20026;-78
2021/10/16 03:38:00;;;;;;;29.48;19.00;;;;;;;;;;5025436;28;20026;-79
2021/10/16 03:40:26;;;;;;;25.02;17.77;;;;;;;;;;5019931;28;20033;-79
2021/10/16 03:42:52;;;;;;;29.20;19.63;;;;;;;;;;5030361;28;20029;-79
2021/10/16 03:45:20;;;;;;;30.38;18.30;;;;;;;;;;5034488;28;20034;-78
2021/10/16 03:47:46;;;;;;;35.80;21.23;;;;;;;;;;5001996;28;20038;-80
2021/10/16 03:50:12;;;;;;;36.42;20.88;;;;;;;;;;5026260;28;20030;-79
2021/10/16 03:52:38;;;;;;;31.55;19.52;;;;;;;;;;5021668;28;20033;-79
2021/10/16 03:55:05;;;;;;;24.95;17.75;;;;;;;;;;5039434;28;20017;-79
2021/10/16 03:57:31;;;;;;;23.13;17.13;;;;;;;;;;5009634;28;20053;-78
2021/10/16 03:59:57;;;;;;;22.58;16.33;;;;;;;;;;5028444;28;20029;-78
2021/10/16 04:02:25;;;;;;;24.58;17.33;;;;;;;;;;5028965;28;20038;-79
2021/10/16 04:04:51;;;;;;;27.25;17.80;;;;;;;;;;5032890;28;20040;-79
2021/10/16 04:07:18;;;;;;;24.00;16.85;;;;;;;;;;5021870;28;20025;-79
2021/10/16 04:09:44;;;;;;;25.40;18.23;;;;;;;;;;5022875;28;20114;-80
2021/10/16 04:12:10;;;;;;;24.95;17.73;;;;;;;;;;5019331;28;20033;-79
2021/10/16 04:14:36;;;;;;;26.70;18.35;;;;;;;;;;5019346;28;20022;-79
2021/10/16 04:17:02;;;;;;;28.23;17.75;;;;;;;;;;5008211;28;20034;-79
2021/10/16 04:19:28;;;;;;;24.52;16.90;;;;;;;;;;5039245;28;20096;-79
2021/10/16 04:21:55;;;;;;;26.33;18.55;;;;;;;;;;5020410;28;20038;-78
2021/10/16 04:24:22;;;;;;;27.02;19.10;;;;;;;;;;5038617;28;20029;-79
2021/10/16 04:26:48;;;;;;;30.02;19.55;;;;;;;;;;5027242;28;20029;-79
2021/10/16 04:29:15;;;;;;;25.00;17.92;;;;;;;;;;5019343;28;20026;-79
2021/10/16 04:31:41;;;;;;;25.60;18.73;;;;;;;;;;5021734;28;20022;-79
2021/10/16 04:34:09;;;;;;;27.05;19.40;;;;;;;;;;5023487;28;20306;-79
2021/10/16 04:36:35;;;;;;;28.45;20.00;;;;;;;;;;5008877;28;20041;-80
2021/10/16 04:39:01;;;;;;;30.63;19.95;;;;;;;;;;5018742;28;20040;-80
2021/10/16 04:41:27;;;;;;;27.30;19.10;;;;;;;;;;5009724;28;20104;-79
2021/10/16 04:43:53;;;;;;;28.58;19.60;;;;;;;;;;5032083;28;20034;-87
2021/10/16 04:46:22;;;;;;;29.52;21.30;;;;;;;;;;5025427;28;20076;-88
2021/10/16 04:48:48;;;;;;;29.35;20.55;;;;;;;;;;5019581;28;20432;-88
2021/10/16 04:51:14;;;;;;;28.15;19.85;;;;;;;;;;5019508;28;20157;-88
2021/10/16 04:53:41;;;;;;;29.25;19.55;;;;;;;;;;5019470;28;20036;-87
2021/10/16 04:56:07;;;;;;;28.73;19.88;;;;;;;;;;5001364;28;20458;-87
2021/10/16 04:58:33;;;;;;;26.08;19.23;;;;;;;;;;5025599;28;20021;-87
2021/10/16 05:00:59;;;;;;;29.98;19.70;;;;;;;;;;5021139;28;20037;-89
2021/10/16 05:03:25;;;;;;;25.75;18.80;;;;;;;;;;5034332;28;20365;-89
2021/10/16 05:05:53;;;;;;;28.33;18.98;;;;;;;;;;5029508;28;20057;-88
2021/10/16 05:08:19;;;;;;;32.67;19.27;;;;;;;;;;5019069;28;20038;-88
2021/10/16 05:10:45;;;;;;;25.60;18.60;;;;;;;;;;5002903;28;20030;-88
2021/10/16 05:13:11;;;;;;;26.40;18.38;;;;;;;;;;5038745;28;20328;-89
2021/10/16 05:15:38;;;;;;;31.35;18.45;;;;;;;;;;5038226;28;20017;-88
2021/10/16 05:18:04;;;;;;;25.58;17.55;;;;;;;;;;5038756;28;20057;-88
2021/10/16 05:20:30;;;;;;;26.10;18.00;;;;;;;;;;5020934;28;20032;-87
2021/10/16 05:22:56;;;;;;;28.85;19.25;;;;;;;;;;5038730;28;20041;-88
2021/10/16 05:25:22;;;;;;;29.58;19.23;;;;;;;;;;5036276;28;20128;-88
2021/10/16 05:27:49;;;;;;;29.25;20.23;;;;;;;;;;5018422;28;20030;-87
2021/10/16 05:30:17;;;;;;;30.83;20.52;;;;;;;;;;5018944;28;20100;-88
2021/10/16 05:32:43;;;;;;;28.48;19.85;;;;;;;;;;5019321;28;20412;-88
2021/10/16 05:35:09;;;;;;;28.67;19.17;;;;;;;;;;5013374;28;20026;-88
2021/10/16 05:37:35;;;;;;;33.15;20.60;;;;;;;;;;5001237;28;20026;-88
2021/10/16 05:40:01;;;;;;;30.27;19.40;;;;;;;;;;5021222;28;20025;-89
2021/10/16 05:42:27;;;;;;;28.40;18.75;;;;;;;;;;5038226;28;20032;-88
2021/10/16 05:44:54;;;;;;;28.45;19.80;;;;;;;;;;5031295;28;20474;-88
2021/10/16 05:47:20;;;;;;;30.17;19.98;;;;;;;;;;5000908;28;20117;-87
2021/10/16 05:49:46;;;;;;;29.35;19.60;;;;;;;;;;5000829;28;20061;-84
2021/10/16 05:52:13;;;;;;;29.10;18.83;;;;;;;;;;5033565;28;20040;-86
2021/10/16 05:54:39;;;;;;;28.15;19.50;;;;;;;;;;5037937;28;20072;-86
2021/10/16 05:57:05;;;;;;;33.15;20.60;;;;;;;;;;5028295;28;20033;-86
2021/10/16 05:59:31;;;;;;;34.45;23.05;;;;;;;;;;5018051;28;20428;-88
2021/10/16 06:01:57;;;;;;;41.47;24.48;;;;;;;;;;5027474;28;20064;-88
2021/10/16 06:04:24;;;;;;;36.72;22.65;;;;;;;;;;5031533;28;20045;-87
2021/10/16 06:06:50;;;;;;;30.10;20.83;;;;;;;;;;5020889;28;20113;-89
2021/10/16 06:09:16;;;;;;;26.98;19.95;;;;;;;;;;5018878;28;20034;-88
2021/10/16 06:11:42;;;;;;;27.15;19.05;;;;;;;;;;5027015;28;20527;-90
2021/10/16 06:14:08;;;;;;;31.70;21.05;;;;;;;;;;5021466;28;20029;-90
2021/10/16 06:16:35;;;;;;;30.00;20.85;;;;;;;;;;5018004;28;20109;-84
2021/10/16 06:19:05;;;;;;;31.73;21.70;;;;;;;;;;5018071;28;20026;-88
2021/10/16 06:21:31;;;;;;;35.20;21.80;;;;;;;;;;5018174;28;20041;-86
2021/10/16 06:23:57;;;;;;;28.60;20.80;;;;;;;;;;5017995;28;20038;-89
2021/10/16 06:26:24;;;;;;;30.35;20.52;;;;;;;;;;5017507;28;20052;-88
2021/10/16 06:28:50;;;;;;;28.45;19.70;;;;;;;;;;5000125;28;20036;-89
2021/10/16 06:31:16;;;;;;;31.30;20.58;;;;;;;;;;5017608;28;20030;-89
2021/10/16 06:33:42;;;;;;;29.50;19.85;;;;;;;;;;5017413;28;20029;-88
2021/10/16 06:36:08;;;;;;;30.90;21.23;;;;;;;;;;5017575;28;20030;-88
2021/10/16 06:38:34;;;;;;;33.70;22.10;;;;;;;;;;5018293;28;20025;-89
2021/10/16 06:41:02;;;;;;;38.17;22.95;;;;;;;;;;5016799;28;20038;-89
2021/10/16 06:43:30;;;;;;;29.92;21.50;;;;;;;;;;5024233;28;20117;-86
2021/10/16 06:45:56;;;;;;;33.08;22.15;;;;;;;;;;5023106;28;20020;-88
2021/10/16 06:48:22;;;;;;;30.58;21.45;;;;;;;;;;5037304;28;20060;-90
2021/10/16 06:50:48;;;;;;;33.38;21.67;;;;;;;;;;5029532;28;20041;-90
2021/10/16 06:53:14;;;;;;;29.55;20.88;;;;;;;;;;5014294;28;20029;-89
2021/10/16 06:56:17;;;;;;;29.17;20.63;;;;;;;;;;5017722;28;20408;-88
2021/10/16 06:58:43;;;;;;;30.88;20.33;;;;;;;;;;5034907;28;20025;-87
2021/10/16 07:01:10;;;;;;;26.63;19.23;;;;;;;;;;5010849;28;20408;-87
2021/10/16 07:03:36;;;;;;;28.52;19.88;;;;;;;;;;5017467;28;20026;-89
2021/10/16 07:06:02;;;;;;;25.27;18.48;;;;;;;;;;5018542;28;20418;-88
2021/10/16 07:08:31;;;;;;;27.42;19.33;;;;;;;;;;5037301;28;20305;-88
2021/10/16 07:10:58;;;;;;;26.42;18.63;;;;;;;;;;5026765;28;20116;-88
2021/10/16 07:13:25;;;;;;;31.92;20.15;;;;;;;;;;4999711;28;20057;-89
2021/10/16 07:15:51;;;;;;;34.65;19.90;;;;;;;;;;5024308;28;20026;-88
2021/10/16 07:18:17;;;;;;;29.90;19.70;;;;;;;;;;5032796;28;20030;-88
2021/10/16 07:20:43;;;;;;;32.95;20.77;;;;;;;;;;5018724;28;20017;-88
2021/10/16 07:23:09;;;;;;;26.92;19.65;;;;;;;;;;5020565;28;20033;-87
2021/10/16 07:25:55;;;;;;;28.85;20.00;;;;;;;;;;5008364;28;20125;-87
2021/10/16 07:28:21;;;;;;;38.35;21.63;;;;;;;;;;5017364;28;20030;-87
2021/10/16 07:30:47;;;;;;;27.00;19.38;;;;;;;;;;5014305;28;20033;-87
2021/10/16 07:33:13;;;;;;;32.00;21.30;;;;;;;;;;5017327;28;20076;-88
2021/10/16 07:35:41;;;;;;;34.03;23.27;;;;;;;;;;5022305;28;20026;-88
2021/10/16 07:38:07;;;;;;;33.90;24.52;;;;;;;;;;5028050;28;20025;-87
2021/10/16 07:40:33;;;;;;;32.10;22.35;;;;;;;;;;5007345;28;20507;-87
2021/10/16 07:42:59;;;;;;;34.90;25.98;;;;;;;;;;5020613;28;20068;-88
2021/10/16 07:45:25;;;;;;;40.92;26.95;;;;;;;;;;5020320;28;20061;-88
2021/10/16 07:47:51;;;;;;;72.10;41.65;;;;;;;;;;5007576;28;20037;-88
2021/10/16 07:50:18;;;;;;;99.30;50.03;;;;;;;;;;5020353;28;20117;-88
2021/10/16 07:52:44;;;;;;;79.20;36.50;;;;;;;;;;5002755;28;20030;-88
2021/10/16 07:55:28;;;;;;;94.13;39.50;;;;;;;;;;5002741;28;20037;-88
2021/10/16 07:57:54;;;;;;;71.63;34.42;;;;;;;;;;5020448;28;20021;-88
2021/10/16 08:00:20;;;;;;;62.33;31.67;;;;;;;;;;5019824;28;20065;-87
2021/10/16 08:02:46;;;;;;;34.80;21.77;;;;;;;;;;5020308;28;20411;-87
2021/10/16 08:05:15;;;;;;;59.13;26.92;;;;;;;;;;5013673;28;20033;-88
2021/10/16 08:07:45;;;;;;;32.10;19.23;;;;;;;;;;5002383;28;20038;-88
2021/10/16 08:16:18;;;;;;;27.20;17.90;;;;;;;;;;5020231;28;20029;-92
2021/10/16 08:18:44;;;;;;;26.88;17.80;;;;;;;;;;5002854;28;20018;-89
2021/10/16 08:21:11;;;;;;;26.25;16.60;;;;;;;;;;5020205;28;20033;-89
2021/10/16 08:23:37;;;;;;;26.65;17.30;;;;;;;;;;5019945;28;20029;-88
2021/10/16 08:26:03;;;;;;;24.45;17.55;;;;;;;;;;5006969;28;20476;-88
2021/10/16 08:28:29;;;;;;;24.10;16.75;;;;;;;;;;5022479;28;20439;-88
2021/10/16 08:30:57;;;;;;;22.25;16.30;;;;;;;;;;5021901;28;20079;-87
2021/10/16 08:33:23;;;;;;;24.17;16.85;;;;;;;;;;5027972;28;20121;-87
2021/10/16 08:35:49;;;;;;;23.77;16.55;;;;;;;;;;5005847;28;20036;-87
2021/10/16 08:38:16;;;;;;;34.67;17.15;;;;;;;;;;5004433;28;20431;-87
2021/10/16 08:43:45;;;;;;;23.67;15.48;;;;;;;;;;5019947;28;20029;-88
2021/10/16 08:46:13;;;;;;;27.60;16.77;;;;;;;;;;5019363;28;20026;-88
2021/10/16 08:48:42;;;;;;;28.58;18.25;;;;;;;;;;5002020;28;20030;-89
2021/10/16 08:51:09;;;;;;;27.75;16.60;;;;;;;;;;5013773;28;20022;-88
2021/10/16 08:53:35;;;;;;;26.30;16.85;;;;;;;;;;5021709;28;20343;-83
2021/10/16 08:56:04;;;;;;;25.17;16.38;;;;;;;;;;5038983;28;20029;-86
2021/10/16 08:58:32;;;;;;;29.17;18.52;;;;;;;;;;5021184;28;20077;-81
2021/10/16 09:00:58;;;;;;;24.10;16.90;;;;;;;;;;5038740;28;20025;-91
2021/10/16 09:03:32;;;;;;;24.35;15.40;;;;;;;;;;5017301;28;20028;-78
2021/10/16 09:06:07;;;;;;;24.77;16.63;;;;;;;;;;5018652;28;20052;-86
2021/10/16 09:08:37;;;;;;;22.88;15.43;;;;;;;;;;5020529;28;20048;-80
2021/10/16 09:11:47;;;;;;;24.45;16.38;;;;;;;;;;5018858;28;20037;-79
2021/10/16 09:14:14;;;;;;;24.02;15.63;;;;;;;;;;4938756;29;20036;-80
2021/10/16 09:16:44;;;;;;;21.60;15.18;;;;;;;;;;4938833;29;20046;-80
2021/10/16 09:19:16;;;;;;;23.20;15.35;;;;;;;;;;4938026;29;20706;-80
2021/10/16 09:21:44;;;;;;;25.95;16.17;;;;;;;;;;4938950;29;20042;-80
2021/10/16 09:24:14;;;;;;;26.90;19.65;;;;;;;;;;4938828;29;20051;-80
2021/10/16 09:26:44;;;;;;;25.45;17.27;;;;;;;;;;4938732;29;20573;-80
2021/10/16 09:29:11;;;;;;;24.17;15.95;;;;;;;;;;4938752;29;20039;-80
2021/10/16 09:31:38;;;;;;;21.63;14.80;;;;;;;;;;4938717;29;20040;-80
2021/10/16 09:34:06;;;;;;;21.25;15.82;;;;;;;;;;4938581;29;20024;-80
2021/10/16 09:36:32;;;;;;;23.65;15.93;;;;;;;;;;4938655;29;20039;-80
2021/10/16 09:38:59;;;;;;;22.75;15.73;;;;;;;;;;4938594;29;20359;-80
2021/10/16 09:41:25;;;;;;;27.00;16.35;;;;;;;;;;4938526;29;20114;-80
2021/10/16 09:43:51;;;;;;;21.50;14.10;;;;;;;;;;4947501;28;20027;-81
2021/10/16 09:46:18;;;;;;;19.48;13.90;;;;;;;;;;5019691;28;20435;-80
2021/10/16 09:48:47;;;;;;;17.23;12.45;;;;;;;;;;5037534;28;20438;-80
2021/10/16 09:51:15;;;;;;;21.98;14.55;;;;;;;;;;5037683;28;20039;-80
2021/10/16 09:53:48;;;;;;;16.90;12.00;;;;;;;;;;5037118;28;20073;-85
2021/10/16 09:56:15;;;;;;;16.42;12.50;;;;;;;;;;5037299;28;20018;-80
2021/10/16 09:58:41;;;;;;;19.45;12.68;;;;;;;;;;5019105;28;20115;-80
2021/10/16 10:01:09;;;;;;;20.00;13.38;;;;;;;;;;5037294;28;20400;-80
2021/10/16 10:03:36;;;;;;;19.98;13.65;;;;;;;;;;5037178;28;20478;-80
2021/10/16 10:06:02;;;;;;;21.40;14.05;;;;;;;;;;5037183;28;20372;-80
2021/10/16 10:08:28;;;;;;;22.92;14.48;;;;;;;;;;5037094;28;20473;-80
2021/10/16 10:10:55;;;;;;;20.67;14.88;;;;;;;;;;5037132;28;20037;-80
2021/10/16 10:13:24;;;;;;;20.77;13.48;;;;;;;;;;5037221;28;20029;-80
2021/10/16 10:15:50;;;;;;;21.50;13.35;;;;;;;;;;5019551;28;20112;-80
2021/10/16 10:21:01;;;;;;;22.40;14.18;;;;;;;;;;5037127;28;20044;-80
2021/10/16 10:23:28;;;;;;;18.08;13.25;;;;;;;;;;5019205;28;20058;-80
2021/10/16 10:26:31;;;;;;;20.10;13.63;;;;;;;;;;5036952;28;20112;-80
2021/10/16 10:29:07;;;;;;;19.13;11.57;;;;;;;;;;5037055;28;20163;-80
2021/10/16 10:31:45;;;;;;;19.48;12.35;;;;;;;;;;5019480;28;20315;-80
2021/10/16 10:34:12;;;;;;;17.05;11.27;;;;;;;;;;5019383;28;20033;-80
2021/10/16 10:36:58;;;;;;;15.63;9.90;;;;;;;;;;5036868;28;20404;-80
2021/10/16 10:39:33;;;;;;;15.68;9.48;;;;;;;;;;5036591;28;20040;-80
2021/10/16 10:41:59;;;;;;;11.77;7.70;;;;;;;;;;5036750;28;20129;-80
2021/10/16 10:44:39;;;;;;;16.73;9.00;;;;;;;;;;5036939;28;20045;-80
2021/10/16 10:47:20;;;;;;;12.85;7.47;;;;;;;;;;5036723;28;20026;-80
2021/10/16 10:49:47;;;;;;;13.02;9.25;;;;;;;;;;5036749;28;20021;-80
2021/10/16 10:52:14;;;;;;;13.38;8.85;;;;;;;;;;5019274;28;20029;-80
2021/10/16 10:54:40;;;;;;;10.27;7.68;;;;;;;;;;5036756;28;20072;-80
2021/10/16 10:57:06;;;;;;;9.18;6.50;;;;;;;;;;5018734;28;20040;-81
2021/10/16 10:59:54;;;;;;;9.30;6.15;;;;;;;;;;5018892;28;20084;-80
2021/10/16 11:02:30;;;;;;;9.07;5.63;;;;;;;;;;5036578;28;20022;-80
2021/10/16 11:04:58;;;;;;;8.25;5.68;;;;;;;;;;5036831;28;20025;-81
2021/10/16 11:07:39;;;;;;;8.02;5.47;;;;;;;;;;5018783;28;20033;-80
2021/10/16 11:10:05;;;;;;;7.38;5.60;;;;;;;;;;5036343;28;20112;-80
2021/10/16 11:12:33;;;;;;;9.63;6.47;;;;;;;;;;5036615;28;20034;-80
2021/10/16 11:15:00;;;;;;;8.75;6.47;;;;;;;;;;5039734;28;20104;-80
2021/10/16 11:17:33;;;;;;;9.02;6.88;;;;;;;;;;5040391;28;20105;-80
2021/10/16 11:20:00;;;;;;;11.63;6.95;;;;;;;;;;5040375;28;20030;-81
2021/10/16 11:22:45;;;;;;;9.10;6.70;;;;;;;;;;5022176;28;20036;-80
2021/10/16 11:25:14;;;;;;;12.10;6.15;;;;;;;;;;5040183;28;20029;-81
2021/10/16 11:27:40;;;;;;;17.27;10.10;;;;;;;;;;5040305;28;20032;-79
2021/10/16 11:30:18;;;;;;;9.95;6.22;;;;;;;;;;5040162;28;20021;-80
2021/10/16 11:32:44;;;;;;;12.43;7.15;;;;;;;;;;5040038;28;20030;-81
2021/10/16 11:35:10;;;;;;;10.48;6.68;;;;;;;;;;5022536;28;20021;-81
2021/10/16 11:37:43;;;;;;;11.00;7.70;;;;;;;;;;5022473;28;20033;-80
2021/10/16 11:40:15;;;;;;;11.88;5.68;;;;;;;;;;5039741;28;20054;-81
2021/10/16 11:42:45;;;;;;;11.15;7.22;;;;;;;;;;5039885;28;20034;-81
2021/10/16 11:45:14;;;;;;;10.77;7.40;;;;;;;;;;5039907;28;20060;-81
2021/10/16 11:47:45;;;;;;;10.77;7.38;;;;;;;;;;5040082;28;20033;-81
2021/10/16 11:50:21;;;;;;;11.13;7.77;;;;;;;;;;5039728;28;20099;-80
2021/10/16 11:52:48;;;;;;;9.60;6.68;;;;;;;;;;5039766;28;20025;-81
2021/10/16 11:55:22;;;;;;;10.55;7.15;;;;;;;;;;5022143;28;20022;-81
2021/10/16 11:57:48;;;;;;;10.27;7.07;;;;;;;;;;5039517;28;20029;-80
2021/10/16 12:00:20;;;;;;;9.30;5.82;;;;;;;;;;5021772;28;20045;-81
2021/10/16 12:02:47;;;;;;;7.43;5.80;;;;;;;;;;5039428;28;20021;-81
2021/10/16 12:05:16;;;;;;;11.88;6.88;;;;;;;;;;5039693;28;20359;-80
2021/10/16 12:07:42;;;;;;;10.20;6.22;;;;;;;;;;5039521;28;20025;-81
2021/10/16 12:10:17;;;;;;;10.63;7.40;;;;;;;;;;5021726;28;20075;-80
2021/10/16 12:13:00;;;;;;;9.93;6.72;;;;;;;;;;5039214;28;20029;-80
2021/10/16 12:15:32;;;;;;;10.52;6.40;;;;;;;;;;5021931;28;20032;-80
2021/10/16 12:17:58;;;;;;;11.07;6.82;;;;;;;;;;5039411;28;20025;-80
2021/10/16 12:20:24;;;;;;;11.75;7.13;;;;;;;;;;5021670;28;20025;-80
2021/10/16 12:22:57;;;;;;;11.45;6.72;;;;;;;;;;5039152;28;20040;-80
2021/10/16 12:25:24;;;;;;;11.85;6.93;;;;;;;;;;5020506;28;20026;-80
2021/10/16 12:28:00;;;;;;;11.70;7.47;;;;;;;;;;5021110;28;20140;-80
2021/10/16 12:30:26;;;;;;;11.30;7.30;;;;;;;;;;5039254;28;20076;-81
2021/10/16 12:33:11;;;;;;;8.65;6.35;;;;;;;;;;5038964;28;20033;-80
2021/10/16 12:35:37;;;;;;;14.18;8.05;;;;;;;;;;5038946;28;20013;-80
2021/10/16 12:38:03;;;;;;;10.38;7.07;;;;;;;;;;5038817;28;20488;-81
2021/10/16 12:40:36;;;;;;;12.32;8.20;;;;;;;;;;5038893;28;20076;-80
2021/10/16 12:43:02;;;;;;;14.07;7.93;;;;;;;;;;5038709;28;20035;-81
2021/10/16 12:45:37;;;;;;;12.13;6.93;;;;;;;;;;5038963;28;20021;-81
2021/10/16 12:48:21;;;;;;;11.75;8.15;;;;;;;;;;5038682;28;20037;-81
2021/10/16 12:50:55;;;;;;;10.82;7.03;;;;;;;;;;5038498;28;20457;-80
2021/10/16 12:53:21;;;;;;;13.95;7.55;;;;;;;;;;5020998;28;20032;-80
2021/10/16 12:55:47;;;;;;;11.13;7.47;;;;;;;;;;5038399;28;20017;-81
2021/10/16 12:58:14;;;;;;;13.25;7.57;;;;;;;;;;5038530;28;20331;-80
2021/10/16 13:00:42;;;;;;;12.15;8.05;;;;;;;;;;5038209;28;20132;-81
2021/10/16 13:03:12;;;;;;;10.63;7.18;;;;;;;;;;5038637;28;20032;-80
2021/10/16 13:05:38;;;;;;;14.20;10.23;;;;;;;;;;5038271;28;20030;-80
2021/10/16 13:08:05;;;;;;;14.75;10.32;;;;;;;;;;5038368;28;20345;-80
2021/10/16 13:10:31;;;;;;;17.10;10.10;;;;;;;;;;5038271;28;20038;-81
2021/10/16 13:12:57;;;;;;;14.43;9.40;;;;;;;;;;5020772;28;20358;-81
2021/10/16 13:15:23;;;;;;;10.57;7.90;;;;;;;;;;5038252;28;20025;-81
2021/10/16 13:17:49;;;;;;;11.95;7.95;;;;;;;;;;5038011;28;20024;-80
2021/10/16 13:20:16;;;;;;;11.43;7.05;;;;;;;;;;5037921;28;20099;-80
2021/10/16 13:22:43;;;;;;;11.35;7.80;;;;;;;;;;5038212;28;20029;-80
2021/10/16 13:25:10;;;;;;;11.75;7.47;;;;;;;;;;5038085;28;20048;-80
2021/10/16 13:27:36;;;;;;;10.48;7.93;;;;;;;;;;5037704;28;20022;-81
2021/10/16 13:30:06;;;;;;;12.10;9.00;;;;;;;;;;5020273;28;20057;-80
2021/10/16 13:32:33;;;;;;;10.15;7.40;;;;;;;;;;5037684;28;20032;-80
2021/10/16 13:34:59;;;;;;;9.57;6.45;;;;;;;;;;5037624;28;20025;-80
2021/10/16 13:37:26;;;;;;;11.00;7.55;;;;;;;;;;5037412;28;20018;-80
2021/10/16 13:39:52;;;;;;;10.88;7.40;;;;;;;;;;5020176;28;20064;-80
2021/10/16 13:42:18;;;;;;;10.05;7.68;;;;;;;;;;5037717;28;20025;-80
2021/10/16 13:44:45;;;;;;;10.30;7.35;;;;;;;;;;5020060;28;20021;-80
2021/10/16 13:47:11;;;;;;;12.88;8.20;;;;;;;;;;5037688;28;20120;-80
2021/10/16 13:49:37;;;;;;;11.43;8.60;;;;;;;;;;5037427;28;20030;-81
2021/10/16 13:52:04;;;;;;;15.65;9.90;;;;;;;;;;5037084;28;20076;-81
2021/10/16 13:54:30;;;;;;;11.85;8.38;;;;;;;;;;5037654;28;20040;-81
2021/10/16 13:56:56;;;;;;;12.57;8.18;;;;;;;;;;5019833;28;20024;-80
2021/10/16 13:59:22;;;;;;;13.93;9.20;;;;;;;;;;5019290;28;20037;-81
2021/10/16 14:01:49;;;;;;;11.88;8.35;;;;;;;;;;5020054;28;20036;-80
2021/10/16 14:04:15;;;;;;;14.07;9.73;;;;;;;;;;5037364;28;20025;-80
2021/10/16 14:06:41;;;;;;;14.30;9.00;;;;;;;;;;5037181;28;20033;-81
2021/10/16 14:09:07;;;;;;;10.90;7.53;;;;;;;;;;5037359;28;20029;-81
2021/10/16 14:11:33;;;;;;;13.27;8.10;;;;;;;;;;5037172;28;20080;-81
2021/10/16 14:13:59;;;;;;;18.35;10.07;;;;;;;;;;5037222;28;20045;-80
2021/10/16 14:16:25;;;;;;;14.95;9.55;;;;;;;;;;5036860;28;20063;-80
2021/10/16 14:18:51;;;;;;;14.95;11.13;;;;;;;;;;5037217;28;20025;-81
2021/10/16 14:21:17;;;;;;;16.50;11.48;;;;;;;;;;5036998;28;20032;-81
2021/10/16 14:23:44;;;;;;;17.88;12.20;;;;;;;;;;5037285;28;20022;-80
2021/10/16 14:26:10;;;;;;;18.55;11.60;;;;;;;;;;5036466;28;20029;-80
2021/10/16 14:28:36;;;;;;;20.08;13.52;;;;;;;;;;5037205;28;20033;-80
2021/10/16 14:31:03;;;;;;;22.02;15.55;;;;;;;;;;5037106;28;20065;-81
2021/10/16 14:33:30;;;;;;;23.02;15.07;;;;;;;;;;5036881;28;20030;-80
2021/10/16 14:35:56;;;;;;;24.85;19.08;;;;;;;;;;5019456;28;20420;-80